sensor_id;sensor_type;location;lat;lon;timestamp;P1;durP1;ratioP1;P2;durP2;ratioP2
14837;SDS011;7510;59.296;18.106;2022-08-06T00:00:16;1.95;;;1.20;;
14837;SDS011;7510;59.296;18.106;2022-08-06T00:02:42;1.85;;;1.23;;
14837;SDS011;7510;59.296;18.106;2022-08-06T00:05:07;1.25;;;0.77;;
14837;SDS011;7510;59.296;18.106;2022-08-06T00:07:33;1.00;;;0.88;;
14837;SDS011;7510;59.296;18.106;2022-08-06T00:09:58;2.63;;;1.05;;
14837;SDS011;7510;59.296;18.106;2022-08-06T00:12:24;2.08;;;0.95;;
14837;SDS011;7510;59.296;18.106;2022-08-06T00:14:49;2.13;;;0.77;;
14837;SDS011;7510;59.296;18.106;2022-08-06T00:17:14;3.63;;;0.90;;
14837;SDS011;7510;59.296;18.106;2022-08-06T00:19:39;1.23;;;1.00;;
14837;SDS011;7510;59.296;18.106;2022-08-06T00:22:05;1.67;;;1.10;;
14837;SDS011;7510;59.296;18.106;2022-08-06T00:24:30;3.78;;;1.10;;
14837;SDS011;7510;59.296;18.106;2022-08-06T00:26:55;1.88;;;1.00;;
14837;SDS011;7510;59.296;18.106;2022-08-06T00:29:20;3.70;;;1.30;;
14837;SDS011;7510;59.296;18.106;2022-08-06T00:31:45;1.52;;;1.30;;
14837;SDS011;7510;59.296;18.106;2022-08-06T00:34:11;3.20;;;1.33;;
14837;SDS011;7510;59.296;18.106;2022-08-06T00:36:36;2.37;;;1.10;;
14837;SDS011;7510;59.296;18.106;2022-08-06T00:39:03;3.97;;;1.17;;
14837;SDS011;7510;59.296;18.106;2022-08-06T00:41:29;4.90;;;1.60;;
14837;SDS011;7510;59.296;18.106;2022-08-06T00:43:55;0.93;;;0.93;;
14837;SDS011;7510;59.296;18.106;2022-08-06T00:46:21;1.87;;;1.13;;
14837;SDS011;7510;59.296;18.106;2022-08-06T00:48:46;2.97;;;1.40;;
14837;SDS011;7510;59.296;18.106;2022-08-06T00:51:12;4.50;;;1.20;;
14837;SDS011;7510;59.296;18.106;2022-08-06T00:53:37;2.63;;;1.20;;
14837;SDS011;7510;59.296;18.106;2022-08-06T00:56:02;4.80;;;1.60;;
14837;SDS011;7510;59.296;18.106;2022-08-06T00:58:28;1.93;;;1.30;;
14837;SDS011;7510;59.296;18.106;2022-08-06T01:00:53;4.17;;;1.27;;
14837;SDS011;7510;59.296;18.106;2022-08-06T01:03:18;2.40;;;1.40;;
14837;SDS011;7510;59.296;18.106;2022-08-06T01:05:44;3.33;;;1.30;;
14837;SDS011;7510;59.296;18.106;2022-08-06T01:08:10;2.87;;;1.17;;
14837;SDS011;7510;59.296;18.106;2022-08-06T01:10:35;4.23;;;1.37;;
14837;SDS011;7510;59.296;18.106;2022-08-06T01:13:00;3.77;;;1.40;;
14837;SDS011;7510;59.296;18.106;2022-08-06T01:15:25;2.43;;;1.00;;
14837;SDS011;7510;59.296;18.106;2022-08-06T01:30:53;2.57;;;1.20;;
14837;SDS011;7510;59.296;18.106;2022-08-06T01:36:06;2.50;;;1.30;;
14837;SDS011;7510;59.296;18.106;2022-08-06T01:38:36;2.93;;;1.80;;
14837;SDS011;7510;59.296;18.106;2022-08-06T01:41:03;1.90;;;1.50;;
14837;SDS011;7510;59.296;18.106;2022-08-06T01:43:29;3.87;;;1.37;;
14837;SDS011;7510;59.296;18.106;2022-08-06T01:45:56;2.37;;;1.50;;
14837;SDS011;7510;59.296;18.106;2022-08-06T01:48:23;5.17;;;2.03;;
14837;SDS011;7510;59.296;18.106;2022-08-06T01:50:50;2.20;;;1.40;;
14837;SDS011;7510;59.296;18.106;2022-08-06T01:53:19;10.73;;;2.00;;
14837;SDS011;7510;59.296;18.106;2022-08-06T01:55:47;2.80;;;1.63;;
14837;SDS011;7510;59.296;18.106;2022-08-06T01:58:14;2.13;;;1.40;;
14837;SDS011;7510;59.296;18.106;2022-08-06T02:00:41;1.87;;;1.47;;
14837;SDS011;7510;59.296;18.106;2022-08-06T02:03:29;5.73;;;2.03;;
14837;SDS011;7510;59.296;18.106;2022-08-06T02:05:53;3.27;;;1.70;;
14837;SDS011;7510;59.296;18.106;2022-08-06T02:08:20;3.67;;;1.40;;
14837;SDS011;7510;59.296;18.106;2022-08-06T02:10:45;3.07;;;1.50;;
14837;SDS011;7510;59.296;18.106;2022-08-06T02:13:11;2.77;;;1.53;;
14837;SDS011;7510;59.296;18.106;2022-08-06T02:15:38;2.60;;;1.47;;
14837;SDS011;7510;59.296;18.106;2022-08-06T02:18:04;3.07;;;1.40;;
14837;SDS011;7510;59.296;18.106;2022-08-06T02:20:35;1.60;;;1.43;;
14837;SDS011;7510;59.296;18.106;2022-08-06T02:23:02;2.83;;;2.00;;
14837;SDS011;7510;59.296;18.106;2022-08-06T02:25:28;1.60;;;1.50;;
14837;SDS011;7510;59.296;18.106;2022-08-06T02:27:54;3.33;;;1.43;;
14837;SDS011;7510;59.296;18.106;2022-08-06T02:30:21;3.67;;;1.60;;
14837;SDS011;7510;59.296;18.106;2022-08-06T02:32:46;3.33;;;1.50;;
14837;SDS011;7510;59.296;18.106;2022-08-06T02:35:11;1.90;;;1.47;;
14837;SDS011;7510;59.296;18.106;2022-08-06T02:37:42;1.90;;;1.57;;
14837;SDS011;7510;59.296;18.106;2022-08-06T02:40:09;4.20;;;1.70;;
14837;SDS011;7510;59.296;18.106;2022-08-06T02:42:42;3.00;;;1.80;;
14837;SDS011;7510;59.296;18.106;2022-08-06T02:50:20;2.60;;;1.50;;
14837;SDS011;7510;59.296;18.106;2022-08-06T02:53:02;4.13;;;1.70;;
14837;SDS011;7510;59.296;18.106;2022-08-06T02:55:32;4.93;;;1.40;;
14837;SDS011;7510;59.296;18.106;2022-08-06T02:58:04;2.00;;;1.60;;
14837;SDS011;7510;59.296;18.106;2022-08-06T03:00:31;4.37;;;1.60;;
14837;SDS011;7510;59.296;18.106;2022-08-06T03:02:59;2.70;;;1.73;;
14837;SDS011;7510;59.296;18.106;2022-08-06T03:05:25;2.13;;;1.37;;
14837;SDS011;7510;59.296;18.106;2022-08-06T03:07:51;6.80;;;1.97;;
14837;SDS011;7510;59.296;18.106;2022-08-06T03:10:20;3.37;;;1.80;;
14837;SDS011;7510;59.296;18.106;2022-08-06T03:12:46;3.97;;;1.67;;
14837;SDS011;7510;59.296;18.106;2022-08-06T03:15:12;5.23;;;2.20;;
14837;SDS011;7510;59.296;18.106;2022-08-06T03:17:38;3.20;;;1.43;;
14837;SDS011;7510;59.296;18.106;2022-08-06T03:20:04;3.60;;;1.77;;
14837;SDS011;7510;59.296;18.106;2022-08-06T03:22:31;7.63;;;1.80;;
14837;SDS011;7510;59.296;18.106;2022-08-06T03:24:56;2.57;;;1.93;;
14837;SDS011;7510;59.296;18.106;2022-08-06T03:27:22;3.57;;;1.40;;
14837;SDS011;7510;59.296;18.106;2022-08-06T03:29:48;9.07;;;1.90;;
14837;SDS011;7510;59.296;18.106;2022-08-06T03:32:13;5.67;;;1.90;;
14837;SDS011;7510;59.296;18.106;2022-08-06T03:34:39;3.73;;;1.80;;
14837;SDS011;7510;59.296;18.106;2022-08-06T03:37:06;2.93;;;1.80;;
14837;SDS011;7510;59.296;18.106;2022-08-06T03:39:32;5.40;;;1.83;;
14837;SDS011;7510;59.296;18.106;2022-08-06T03:41:57;5.77;;;1.73;;
14837;SDS011;7510;59.296;18.106;2022-08-06T03:44:23;3.13;;;2.17;;
14837;SDS011;7510;59.296;18.106;2022-08-06T03:47:04;3.30;;;1.70;;
14837;SDS011;7510;59.296;18.106;2022-08-06T03:49:35;5.50;;;1.60;;
14837;SDS011;7510;59.296;18.106;2022-08-06T03:52:01;2.10;;;1.30;;
14837;SDS011;7510;59.296;18.106;2022-08-06T03:54:28;1.80;;;1.38;;
14837;SDS011;7510;59.296;18.106;2022-08-06T03:56:54;4.03;;;1.40;;
14837;SDS011;7510;59.296;18.106;2022-08-06T03:59:21;6.90;;;1.85;;
14837;SDS011;7510;59.296;18.106;2022-08-06T04:01:46;4.43;;;1.70;;
14837;SDS011;7510;59.296;18.106;2022-08-06T04:04:12;3.40;;;1.90;;
14837;SDS011;7510;59.296;18.106;2022-08-06T04:06:39;4.50;;;1.63;;
14837;SDS011;7510;59.296;18.106;2022-08-06T04:09:06;4.27;;;1.90;;
14837;SDS011;7510;59.296;18.106;2022-08-06T04:11:32;6.33;;;1.70;;
14837;SDS011;7510;59.296;18.106;2022-08-06T04:13:57;3.23;;;1.97;;
14837;SDS011;7510;59.296;18.106;2022-08-06T04:16:23;4.87;;;1.87;;
14837;SDS011;7510;59.296;18.106;2022-08-06T04:18:48;3.80;;;1.67;;
14837;SDS011;7510;59.296;18.106;2022-08-06T04:21:15;5.53;;;1.87;;
14837;SDS011;7510;59.296;18.106;2022-08-06T04:23:41;7.60;;;1.50;;
14837;SDS011;7510;59.296;18.106;2022-08-06T04:26:07;3.40;;;1.60;;
14837;SDS011;7510;59.296;18.106;2022-08-06T04:28:34;4.50;;;1.57;;
14837;SDS011;7510;59.296;18.106;2022-08-06T04:31:00;4.10;;;1.55;;
14837;SDS011;7510;59.296;18.106;2022-08-06T04:33:26;5.13;;;1.70;;
14837;SDS011;7510;59.296;18.106;2022-08-06T04:35:52;7.60;;;1.58;;
14837;SDS011;7510;59.296;18.106;2022-08-06T04:38:17;3.83;;;1.95;;
14837;SDS011;7510;59.296;18.106;2022-08-06T04:40:43;5.80;;;1.67;;
14837;SDS011;7510;59.296;18.106;2022-08-06T04:43:09;2.50;;;1.17;;
14837;SDS011;7510;59.296;18.106;2022-08-06T04:45:35;5.63;;;1.40;;
14837;SDS011;7510;59.296;18.106;2022-08-06T04:48:02;4.07;;;1.30;;
14837;SDS011;7510;59.296;18.106;2022-08-06T04:50:29;1.40;;;1.02;;
14837;SDS011;7510;59.296;18.106;2022-08-06T04:53:03;4.90;;;1.80;;
14837;SDS011;7510;59.296;18.106;2022-08-06T04:55:29;5.50;;;1.30;;
14837;SDS011;7510;59.296;18.106;2022-08-06T04:57:54;5.38;;;1.40;;
14837;SDS011;7510;59.296;18.106;2022-08-06T05:00:19;5.97;;;1.52;;
14837;SDS011;7510;59.296;18.106;2022-08-06T05:02:44;5.45;;;1.52;;
14837;SDS011;7510;59.296;18.106;2022-08-06T05:05:10;4.93;;;1.30;;
14837;SDS011;7510;59.296;18.106;2022-08-06T05:07:37;3.78;;;1.92;;
14837;SDS011;7510;59.296;18.106;2022-08-06T05:10:03;3.40;;;1.17;;
14837;SDS011;7510;59.296;18.106;2022-08-06T05:15:27;5.97;;;1.88;;
14837;SDS011;7510;59.296;18.106;2022-08-06T05:17:55;3.20;;;1.25;;
14837;SDS011;7510;59.296;18.106;2022-08-06T05:20:21;2.10;;;1.20;;
14837;SDS011;7510;59.296;18.106;2022-08-06T05:22:51;4.75;;;1.33;;
14837;SDS011;7510;59.296;18.106;2022-08-06T05:25:17;5.43;;;1.70;;
14837;SDS011;7510;59.296;18.106;2022-08-06T05:27:43;3.53;;;1.27;;
14837;SDS011;7510;59.296;18.106;2022-08-06T05:30:08;2.65;;;1.23;;
14837;SDS011;7510;59.296;18.106;2022-08-06T05:32:43;2.47;;;0.98;;
14837;SDS011;7510;59.296;18.106;2022-08-06T05:35:09;5.50;;;1.25;;
14837;SDS011;7510;59.296;18.106;2022-08-06T05:37:34;3.55;;;1.23;;
14837;SDS011;7510;59.296;18.106;2022-08-06T05:39:59;1.60;;;1.27;;
14837;SDS011;7510;59.296;18.106;2022-08-06T05:42:25;3.45;;;1.23;;
14837;SDS011;7510;59.296;18.106;2022-08-06T05:44:50;6.78;;;1.70;;
14837;SDS011;7510;59.296;18.106;2022-08-06T05:47:17;2.88;;;1.42;;
14837;SDS011;7510;59.296;18.106;2022-08-06T05:49:46;3.72;;;1.75;;
14837;SDS011;7510;59.296;18.106;2022-08-06T05:52:24;5.57;;;1.60;;
14837;SDS011;7510;59.296;18.106;2022-08-06T05:54:52;3.10;;;1.50;;
14837;SDS011;7510;59.296;18.106;2022-08-06T05:57:26;5.03;;;1.42;;
14837;SDS011;7510;59.296;18.106;2022-08-06T05:59:54;4.05;;;1.45;;
14837;SDS011;7510;59.296;18.106;2022-08-06T06:02:21;6.38;;;1.77;;
14837;SDS011;7510;59.296;18.106;2022-08-06T06:04:47;3.35;;;1.10;;
14837;SDS011;7510;59.296;18.106;2022-08-06T06:07:12;9.60;;;1.75;;
14837;SDS011;7510;59.296;18.106;2022-08-06T06:09:39;3.58;;;1.63;;
14837;SDS011;7510;59.296;18.106;2022-08-06T06:12:05;10.05;;;1.63;;
14837;SDS011;7510;59.296;18.106;2022-08-06T06:14:35;4.70;;;1.23;;
14837;SDS011;7510;59.296;18.106;2022-08-06T06:19:42;4.90;;;1.27;;
14837;SDS011;7510;59.296;18.106;2022-08-06T06:27:49;5.43;;;1.70;;
14837;SDS011;7510;59.296;18.106;2022-08-06T06:33:09;5.22;;;1.70;;
14837;SDS011;7510;59.296;18.106;2022-08-06T06:38:23;9.07;;;1.90;;
14837;SDS011;7510;59.296;18.106;2022-08-06T06:46:06;4.90;;;1.50;;
14837;SDS011;7510;59.296;18.106;2022-08-06T06:48:33;3.95;;;1.50;;
14837;SDS011;7510;59.296;18.106;2022-08-06T06:51:02;4.55;;;1.40;;
14837;SDS011;7510;59.296;18.106;2022-08-06T06:53:28;4.65;;;1.88;;
14837;SDS011;7510;59.296;18.106;2022-08-06T06:55:55;5.22;;;1.55;;
14837;SDS011;7510;59.296;18.106;2022-08-06T07:00:51;9.55;;;2.20;;
14837;SDS011;7510;59.296;18.106;2022-08-06T07:03:16;5.68;;;1.42;;
14837;SDS011;7510;59.296;18.106;2022-08-06T07:05:42;5.78;;;1.88;;
14837;SDS011;7510;59.296;18.106;2022-08-06T07:08:09;3.47;;;1.50;;
14837;SDS011;7510;59.296;18.106;2022-08-06T07:10:35;3.80;;;1.63;;
14837;SDS011;7510;59.296;18.106;2022-08-06T07:13:00;2.92;;;1.48;;
14837;SDS011;7510;59.296;18.106;2022-08-06T07:15:26;5.05;;;1.50;;
14837;SDS011;7510;59.296;18.106;2022-08-06T07:17:52;3.28;;;1.48;;
14837;SDS011;7510;59.296;18.106;2022-08-06T07:20:20;5.38;;;1.88;;
14837;SDS011;7510;59.296;18.106;2022-08-06T07:22:46;4.32;;;1.27;;
14837;SDS011;7510;59.296;18.106;2022-08-06T07:25:12;2.47;;;1.00;;
14837;SDS011;7510;59.296;18.106;2022-08-06T07:27:39;5.38;;;1.52;;
14837;SDS011;7510;59.296;18.106;2022-08-06T07:30:05;2.72;;;1.10;;
14837;SDS011;7510;59.296;18.106;2022-08-06T07:32:31;5.32;;;1.58;;
14837;SDS011;7510;59.296;18.106;2022-08-06T07:34:58;2.75;;;1.20;;
14837;SDS011;7510;59.296;18.106;2022-08-06T07:37:23;3.38;;;1.13;;
14837;SDS011;7510;59.296;18.106;2022-08-06T07:39:50;2.85;;;1.50;;
14837;SDS011;7510;59.296;18.106;2022-08-06T07:42:17;2.63;;;0.68;;
14837;SDS011;7510;59.296;18.106;2022-08-06T07:44:44;3.00;;;0.93;;
14837;SDS011;7510;59.296;18.106;2022-08-06T07:47:12;3.72;;;1.20;;
14837;SDS011;7510;59.296;18.106;2022-08-06T07:49:41;3.08;;;1.13;;
14837;SDS011;7510;59.296;18.106;2022-08-06T07:52:08;2.47;;;1.20;;
14837;SDS011;7510;59.296;18.106;2022-08-06T07:54:34;2.20;;;1.17;;
14837;SDS011;7510;59.296;18.106;2022-08-06T07:57:00;2.35;;;1.00;;
14837;SDS011;7510;59.296;18.106;2022-08-06T07:59:25;2.83;;;0.98;;
14837;SDS011;7510;59.296;18.106;2022-08-06T08:01:51;4.45;;;1.30;;
14837;SDS011;7510;59.296;18.106;2022-08-06T08:04:17;1.98;;;0.70;;
14837;SDS011;7510;59.296;18.106;2022-08-06T08:07:01;5.35;;;1.05;;
14837;SDS011;7510;59.296;18.106;2022-08-06T08:09:27;1.90;;;0.98;;
14837;SDS011;7510;59.296;18.106;2022-08-06T08:11:53;2.90;;;1.25;;
14837;SDS011;7510;59.296;18.106;2022-08-06T08:14:19;4.20;;;1.10;;
14837;SDS011;7510;59.296;18.106;2022-08-06T08:16:45;4.07;;;1.08;;
14837;SDS011;7510;59.296;18.106;2022-08-06T08:19:23;3.03;;;1.10;;
14837;SDS011;7510;59.296;18.106;2022-08-06T08:21:50;1.92;;;0.90;;
14837;SDS011;7510;59.296;18.106;2022-08-06T08:24:16;2.30;;;1.20;;
14837;SDS011;7510;59.296;18.106;2022-08-06T08:26:41;2.67;;;0.70;;
14837;SDS011;7510;59.296;18.106;2022-08-06T08:29:07;3.78;;;0.98;;
14837;SDS011;7510;59.296;18.106;2022-08-06T08:31:35;1.85;;;1.02;;
14837;SDS011;7510;59.296;18.106;2022-08-06T08:34:00;3.63;;;0.95;;
14837;SDS011;7510;59.296;18.106;2022-08-06T08:36:25;2.50;;;1.00;;
14837;SDS011;7510;59.296;18.106;2022-08-06T08:38:50;1.47;;;1.03;;
14837;SDS011;7510;59.296;18.106;2022-08-06T08:41:22;3.28;;;0.98;;
14837;SDS011;7510;59.296;18.106;2022-08-06T08:43:59;7.25;;;1.08;;
14837;SDS011;7510;59.296;18.106;2022-08-06T08:46:26;1.25;;;0.60;;
14837;SDS011;7510;59.296;18.106;2022-08-06T08:48:51;3.67;;;0.95;;
14837;SDS011;7510;59.296;18.106;2022-08-06T08:51:17;1.35;;;0.60;;
14837;SDS011;7510;59.296;18.106;2022-08-06T08:53:44;1.17;;;0.63;;
14837;SDS011;7510;59.296;18.106;2022-08-06T08:56:11;1.40;;;0.50;;
14837;SDS011;7510;59.296;18.106;2022-08-06T08:58:37;2.78;;;0.75;;
14837;SDS011;7510;59.296;18.106;2022-08-06T09:01:06;1.27;;;0.52;;
14837;SDS011;7510;59.296;18.106;2022-08-06T09:03:35;2.33;;;0.80;;
14837;SDS011;7510;59.296;18.106;2022-08-06T09:06:01;2.35;;;0.73;;
14837;SDS011;7510;59.296;18.106;2022-08-06T09:08:26;0.73;;;0.50;;
14837;SDS011;7510;59.296;18.106;2022-08-06T09:10:52;0.93;;;0.68;;
14837;SDS011;7510;59.296;18.106;2022-08-06T09:13:17;0.90;;;0.70;;
14837;SDS011;7510;59.296;18.106;2022-08-06T09:15:43;3.05;;;0.60;;
14837;SDS011;7510;59.296;18.106;2022-08-06T09:18:08;1.67;;;0.60;;
14837;SDS011;7510;59.296;18.106;2022-08-06T09:20:34;1.27;;;0.52;;
14837;SDS011;7510;59.296;18.106;2022-08-06T09:22:59;0.82;;;0.40;;
14837;SDS011;7510;59.296;18.106;2022-08-06T09:25:34;2.47;;;0.63;;
14837;SDS011;7510;59.296;18.106;2022-08-06T09:27:59;1.52;;;0.50;;
14837;SDS011;7510;59.296;18.106;2022-08-06T09:30:25;3.00;;;0.90;;
14837;SDS011;7510;59.296;18.106;2022-08-06T09:32:51;2.10;;;0.80;;
14837;SDS011;7510;59.296;18.106;2022-08-06T09:35:22;1.48;;;0.30;;
14837;SDS011;7510;59.296;18.106;2022-08-06T09:37:48;1.05;;;0.47;;
14837;SDS011;7510;59.296;18.106;2022-08-06T09:40:14;1.23;;;0.40;;
14837;SDS011;7510;59.296;18.106;2022-08-06T09:42:41;1.58;;;0.50;;
14837;SDS011;7510;59.296;18.106;2022-08-06T09:45:10;0.40;;;0.30;;
14837;SDS011;7510;59.296;18.106;2022-08-06T09:47:38;0.95;;;0.50;;
14837;SDS011;7510;59.296;18.106;2022-08-06T09:50:06;1.45;;;0.50;;
14837;SDS011;7510;59.296;18.106;2022-08-06T09:52:32;2.28;;;0.57;;
14837;SDS011;7510;59.296;18.106;2022-08-06T09:54:58;1.17;;;0.30;;
14837;SDS011;7510;59.296;18.106;2022-08-06T09:57:24;0.30;;;0.20;;
14837;SDS011;7510;59.296;18.106;2022-08-06T09:59:49;0.40;;;0.40;;
14837;SDS011;7510;59.296;18.106;2022-08-06T10:02:15;0.20;;;0.20;;
14837;SDS011;7510;59.296;18.106;2022-08-06T10:04:42;1.08;;;0.30;;
14837;SDS011;7510;59.296;18.106;2022-08-06T10:07:08;1.17;;;0.40;;
14837;SDS011;7510;59.296;18.106;2022-08-06T10:09:34;0.30;;;0.30;;
14837;SDS011;7510;59.296;18.106;2022-08-06T10:12:01;1.10;;;0.22;;
14837;SDS011;7510;59.296;18.106;2022-08-06T10:14:40;1.08;;;0.40;;
14837;SDS011;7510;59.296;18.106;2022-08-06T10:17:15;1.93;;;0.10;;
14837;SDS011;7510;59.296;18.106;2022-08-06T10:19:45;0.20;;;0.20;;
14837;SDS011;7510;59.296;18.106;2022-08-06T10:22:15;1.13;;;0.30;;
14837;SDS011;7510;59.296;18.106;2022-08-06T10:24:43;0.30;;;0.30;;
14837;SDS011;7510;59.296;18.106;2022-08-06T10:27:11;0.30;;;0.20;;
14837;SDS011;7510;59.296;18.106;2022-08-06T10:29:39;0.75;;;0.10;;
14837;SDS011;7510;59.296;18.106;2022-08-06T10:32:05;0.20;;;0.20;;
14837;SDS011;7510;59.296;18.106;2022-08-06T10:34:32;1.42;;;0.15;;
14837;SDS011;7510;59.296;18.106;2022-08-06T10:36:58;1.75;;;0.30;;
14837;SDS011;7510;59.296;18.106;2022-08-06T10:39:25;0.50;;;0.30;;
14837;SDS011;7510;59.296;18.106;2022-08-06T10:41:51;2.05;;;0.25;;
14837;SDS011;7510;59.296;18.106;2022-08-06T10:44:22;2.90;;;0.30;;
14837;SDS011;7510;59.296;18.106;2022-08-06T10:46:47;1.45;;;0.20;;
14837;SDS011;7510;59.296;18.106;2022-08-06T10:49:13;0.10;;;0.10;;
14837;SDS011;7510;59.296;18.106;2022-08-06T10:51:39;1.35;;;0.20;;
14837;SDS011;7510;59.296;18.106;2022-08-06T10:54:05;1.10;;;0.20;;
14837;SDS011;7510;59.296;18.106;2022-08-06T10:56:30;0.20;;;0.20;;
14837;SDS011;7510;59.296;18.106;2022-08-06T10:58:56;0.10;;;0.10;;
14837;SDS011;7510;59.296;18.106;2022-08-06T11:14:09;1.67;;;0.20;;
14837;SDS011;7510;59.296;18.106;2022-08-06T11:16:34;0.20;;;0.20;;
14837;SDS011;7510;59.296;18.106;2022-08-06T11:19:02;0.82;;;0.55;;
14837;SDS011;7510;59.296;18.106;2022-08-06T11:21:34;0.73;;;0.22;;
14837;SDS011;7510;59.296;18.106;2022-08-06T11:24:00;1.98;;;0.52;;
14837;SDS011;7510;59.296;18.106;2022-08-06T11:26:38;2.05;;;0.20;;
14837;SDS011;7510;59.296;18.106;2022-08-06T11:29:07;1.65;;;0.20;;
14837;SDS011;7510;59.296;18.106;2022-08-06T11:31:37;2.80;;;0.40;;
14837;SDS011;7510;59.296;18.106;2022-08-06T11:34:03;1.05;;;0.28;;
14837;SDS011;7510;59.296;18.106;2022-08-06T11:36:29;0.45;;;0.40;;
14837;SDS011;7510;59.296;18.106;2022-08-06T11:39:06;1.75;;;0.43;;
14837;SDS011;7510;59.296;18.106;2022-08-06T11:41:36;0.73;;;0.40;;
14837;SDS011;7510;59.296;18.106;2022-08-06T11:44:07;1.15;;;0.40;;
14837;SDS011;7510;59.296;18.106;2022-08-06T11:46:34;0.65;;;0.38;;
14837;SDS011;7510;59.296;18.106;2022-08-06T11:49:10;1.58;;;0.30;;
14837;SDS011;7510;59.296;18.106;2022-08-06T11:56:43;0.35;;;0.35;;
14837;SDS011;7510;59.296;18.106;2022-08-06T11:59:21;0.30;;;0.30;;
14837;SDS011;7510;59.296;18.106;2022-08-06T12:01:47;0.77;;;0.30;;
14837;SDS011;7510;59.296;18.106;2022-08-06T12:09:44;0.47;;;0.30;;
14837;SDS011;7510;59.296;18.106;2022-08-06T12:12:51;0.82;;;0.63;;
14837;SDS011;7510;59.296;18.106;2022-08-06T12:17:24;1.63;;;0.63;;
14837;SDS011;7510;59.296;18.106;2022-08-06T12:19:51;0.22;;;0.22;;
14837;SDS011;7510;59.296;18.106;2022-08-06T12:22:18;0.10;;;0.10;;
14837;SDS011;7510;59.296;18.106;2022-08-06T12:24:45;1.85;;;0.30;;
14837;SDS011;7510;59.296;18.106;2022-08-06T12:27:11;0.73;;;0.40;;
14837;SDS011;7510;59.296;18.106;2022-08-06T12:29:37;0.40;;;0.30;;
14837;SDS011;7510;59.296;18.106;2022-08-06T12:34:49;1.23;;;0.38;;
14837;SDS011;7510;59.296;18.106;2022-08-06T12:37:15;0.20;;;0.20;;
14837;SDS011;7510;59.296;18.106;2022-08-06T12:39:41;0.47;;;0.40;;
14837;SDS011;7510;59.296;18.106;2022-08-06T12:42:25;0.52;;;0.40;;
14837;SDS011;7510;59.296;18.106;2022-08-06T12:44:51;0.40;;;0.30;;
14837;SDS011;7510;59.296;18.106;2022-08-06T12:47:16;0.63;;;0.38;;
14837;SDS011;7510;59.296;18.106;2022-08-06T12:49:41;0.50;;;0.20;;
14837;SDS011;7510;59.296;18.106;2022-08-06T12:52:16;0.52;;;0.38;;
14837;SDS011;7510;59.296;18.106;2022-08-06T12:54:42;0.75;;;0.40;;
14837;SDS011;7510;59.296;18.106;2022-08-06T12:57:08;0.30;;;0.20;;
14837;SDS011;7510;59.296;18.106;2022-08-06T12:59:33;0.57;;;0.30;;
14837;SDS011;7510;59.296;18.106;2022-08-06T13:01:59;0.52;;;0.50;;
14837;SDS011;7510;59.296;18.106;2022-08-06T13:04:24;0.80;;;0.70;;
14837;SDS011;7510;59.296;18.106;2022-08-06T13:06:50;0.95;;;0.75;;
14837;SDS011;7510;59.296;18.106;2022-08-06T13:09:16;2.38;;;0.98;;
14837;SDS011;7510;59.296;18.106;2022-08-06T13:11:41;2.15;;;0.80;;
14837;SDS011;7510;59.296;18.106;2022-08-06T13:14:07;0.70;;;0.40;;
14837;SDS011;7510;59.296;18.106;2022-08-06T13:16:43;1.27;;;0.30;;
14837;SDS011;7510;59.296;18.106;2022-08-06T13:19:10;1.73;;;0.30;;
14837;SDS011;7510;59.296;18.106;2022-08-06T13:21:35;0.40;;;0.32;;
14837;SDS011;7510;59.296;18.106;2022-08-06T13:24:01;0.38;;;0.20;;
14837;SDS011;7510;59.296;18.106;2022-08-06T13:26:27;1.08;;;0.30;;
14837;SDS011;7510;59.296;18.106;2022-08-06T13:31:32;0.82;;;0.30;;
14837;SDS011;7510;59.296;18.106;2022-08-06T13:34:04;0.85;;;0.30;;
14837;SDS011;7510;59.296;18.106;2022-08-06T13:36:30;1.35;;;0.20;;
14837;SDS011;7510;59.296;18.106;2022-08-06T13:38:55;0.40;;;0.40;;
14837;SDS011;7510;59.296;18.106;2022-08-06T13:41:24;1.08;;;0.30;;
14837;SDS011;7510;59.296;18.106;2022-08-06T13:43:49;0.52;;;0.43;;
14837;SDS011;7510;59.296;18.106;2022-08-06T13:46:16;0.55;;;0.43;;
14837;SDS011;7510;59.296;18.106;2022-08-06T13:48:51;1.17;;;0.45;;
14837;SDS011;7510;59.296;18.106;2022-08-06T13:51:17;4.30;;;0.40;;
14837;SDS011;7510;59.296;18.106;2022-08-06T13:53:43;0.40;;;0.25;;
14837;SDS011;7510;59.296;18.106;2022-08-06T13:56:09;0.80;;;0.38;;
14837;SDS011;7510;59.296;18.106;2022-08-06T13:58:34;0.52;;;0.30;;
14837;SDS011;7510;59.296;18.106;2022-08-06T14:00:59;1.40;;;0.38;;
14837;SDS011;7510;59.296;18.106;2022-08-06T14:03:25;0.40;;;0.30;;
14837;SDS011;7510;59.296;18.106;2022-08-06T14:05:51;0.35;;;0.25;;
14837;SDS011;7510;59.296;18.106;2022-08-06T14:08:16;0.20;;;0.20;;
14837;SDS011;7510;59.296;18.106;2022-08-06T14:10:41;0.68;;;0.10;;
14837;SDS011;7510;59.296;18.106;2022-08-06T14:13:07;0.88;;;0.40;;
14837;SDS011;7510;59.296;18.106;2022-08-06T14:15:41;2.15;;;0.30;;
14837;SDS011;7510;59.296;18.106;2022-08-06T14:18:07;3.92;;;0.20;;
14837;SDS011;7510;59.296;18.106;2022-08-06T14:20:32;0.65;;;0.20;;
14837;SDS011;7510;59.296;18.106;2022-08-06T14:22:57;3.42;;;0.30;;
14837;SDS011;7510;59.296;18.106;2022-08-06T14:25:23;2.00;;;0.20;;
14837;SDS011;7510;59.296;18.106;2022-08-06T14:27:48;1.15;;;0.30;;
14837;SDS011;7510;59.296;18.106;2022-08-06T14:30:14;0.20;;;0.20;;
14837;SDS011;7510;59.296;18.106;2022-08-06T14:32:40;0.30;;;0.30;;
14837;SDS011;7510;59.296;18.106;2022-08-06T14:35:05;0.45;;;0.38;;
14837;SDS011;7510;59.296;18.106;2022-08-06T14:37:33;0.90;;;0.43;;
14837;SDS011;7510;59.296;18.106;2022-08-06T14:39:58;1.27;;;0.30;;
14837;SDS011;7510;59.296;18.106;2022-08-06T14:42:24;0.20;;;0.20;;
14837;SDS011;7510;59.296;18.106;2022-08-06T14:45:08;0.40;;;0.40;;
14837;SDS011;7510;59.296;18.106;2022-08-06T14:47:33;0.40;;;0.40;;
14837;SDS011;7510;59.296;18.106;2022-08-06T14:49:58;1.27;;;0.50;;
14837;SDS011;7510;59.296;18.106;2022-08-06T14:52:24;1.75;;;0.70;;
14837;SDS011;7510;59.296;18.106;2022-08-06T14:54:49;0.82;;;0.70;;
14837;SDS011;7510;59.296;18.106;2022-08-06T14:57:14;0.98;;;0.55;;
14837;SDS011;7510;59.296;18.106;2022-08-06T14:59:40;3.28;;;1.10;;
14837;SDS011;7510;59.296;18.106;2022-08-06T15:02:05;0.47;;;0.40;;
14837;SDS011;7510;59.296;18.106;2022-08-06T15:04:32;2.05;;;0.55;;
14837;SDS011;7510;59.296;18.106;2022-08-06T15:06:57;0.20;;;0.20;;
14837;SDS011;7510;59.296;18.106;2022-08-06T15:09:22;0.60;;;0.60;;
14837;SDS011;7510;59.296;18.106;2022-08-06T15:11:48;0.85;;;0.47;;
14837;SDS011;7510;59.296;18.106;2022-08-06T15:14:14;0.35;;;0.35;;
14837;SDS011;7510;59.296;18.106;2022-08-06T15:16:39;1.20;;;0.70;;
14837;SDS011;7510;59.296;18.106;2022-08-06T15:19:05;1.23;;;0.50;;
14837;SDS011;7510;59.296;18.106;2022-08-06T15:21:30;1.38;;;0.30;;
14837;SDS011;7510;59.296;18.106;2022-08-06T15:23:56;0.20;;;0.20;;
14837;SDS011;7510;59.296;18.106;2022-08-06T15:26:22;0.60;;;0.40;;
14837;SDS011;7510;59.296;18.106;2022-08-06T15:28:47;0.20;;;0.20;;
14837;SDS011;7510;59.296;18.106;2022-08-06T15:31:12;0.50;;;0.50;;
14837;SDS011;7510;59.296;18.106;2022-08-06T15:33:38;0.30;;;0.30;;
14837;SDS011;7510;59.296;18.106;2022-08-06T15:36:04;0.38;;;0.38;;
14837;SDS011;7510;59.296;18.106;2022-08-06T15:38:29;0.70;;;0.55;;
14837;SDS011;7510;59.296;18.106;2022-08-06T15:40:55;0.30;;;0.30;;
14837;SDS011;7510;59.296;18.106;2022-08-06T15:43:20;0.93;;;0.38;;
14837;SDS011;7510;59.296;18.106;2022-08-06T15:45:46;4.85;;;0.75;;
14837;SDS011;7510;59.296;18.106;2022-08-06T15:48:11;0.40;;;0.32;;
14837;SDS011;7510;59.296;18.106;2022-08-06T15:50:40;0.43;;;0.20;;
14837;SDS011;7510;59.296;18.106;2022-08-06T15:53:05;1.25;;;0.57;;
14837;SDS011;7510;59.296;18.106;2022-08-06T15:55:31;0.60;;;0.15;;
14837;SDS011;7510;59.296;18.106;2022-08-06T15:57:56;2.42;;;0.63;;
14837;SDS011;7510;59.296;18.106;2022-08-06T16:00:21;1.08;;;0.43;;
14837;SDS011;7510;59.296;18.106;2022-08-06T16:02:46;0.40;;;0.20;;